createdAt,value
2023-05-12T00:01:30.807Z,10.43
2023-05-12T00:03:58.306Z,10.38
2023-05-12T00:06:26.134Z,10.23
2023-05-12T00:08:53.276Z,10.18
2023-05-12T00:11:21.041Z,10.40
2023-05-12T00:13:48.834Z,10.63
2023-05-12T00:16:17.528Z,10.63
2023-05-12T00:18:44.877Z,11.88
2023-05-12T00:21:12.416Z,10.38
2023-05-12T00:23:39.677Z,10.15
2023-05-12T00:26:06.855Z,10.55
2023-05-12T00:28:34.321Z,10.10
2023-05-12T00:31:04.705Z,11.25
2023-05-12T00:33:32.028Z,10.30
2023-05-12T00:36:04.139Z,10.50
2023-05-12T00:38:31.390Z,10.60
2023-05-12T00:40:58.576Z,10.60
2023-05-12T00:43:25.802Z,10.75
2023-05-12T00:45:53.354Z,10.25
2023-05-12T00:48:21.306Z,11.10
2023-05-12T00:50:48.470Z,11.57
2023-05-12T00:53:15.809Z,11.13
2023-05-12T00:55:42.930Z,10.85
2023-05-12T00:58:10.081Z,10.65
2023-05-12T01:00:37.233Z,11.07
2023-05-12T01:03:04.975Z,11.32
2023-05-12T01:05:35.732Z,11.10
2023-05-12T01:08:04.345Z,11.32
2023-05-12T01:10:31.519Z,10.60
2023-05-12T01:12:58.892Z,10.75
2023-05-12T01:15:26.176Z,10.18
2023-05-12T01:17:56.385Z,10.40
2023-05-12T01:20:24.791Z,10.68
2023-05-12T01:22:52.561Z,10.15
2023-05-12T01:25:20.565Z,9.63
2023-05-12T01:27:48.084Z,10.82
2023-05-12T01:30:17.369Z,10.15
2023-05-12T01:32:44.886Z,10.07
2023-05-12T01:35:12.369Z,9.85
2023-05-12T01:37:39.525Z,9.32
2023-05-12T01:40:07.634Z,9.88
2023-05-12T01:42:34.882Z,9.75
2023-05-12T01:45:02.021Z,9.50
2023-05-12T01:47:29.194Z,9.80
2023-05-12T01:49:56.438Z,9.32
2023-05-12T01:52:25.060Z,9.35
2023-05-12T01:54:52.241Z,7.90
2023-05-12T01:57:19.528Z,8.38
2023-05-12T01:59:46.706Z,8.88
2023-05-12T02:02:13.957Z,8.55
2023-05-12T02:04:41.164Z,7.88
2023-05-12T02:07:08.816Z,8.75
2023-05-12T02:09:36.023Z,8.77
2023-05-12T02:12:04.313Z,8.60
2023-05-12T02:14:31.470Z,8.63
2023-05-12T02:16:58.603Z,8.48
2023-05-12T02:19:25.879Z,8.15
2023-05-12T02:21:52.976Z,8.10
2023-05-12T02:24:21.367Z,8.57
2023-05-12T02:26:48.530Z,9.30
2023-05-12T02:29:15.636Z,9.50
2023-05-12T02:31:42.987Z,8.95
2023-05-12T02:34:10.292Z,8.80
2023-05-12T02:36:37.904Z,8.48
2023-05-12T02:39:05.334Z,8.95
2023-05-12T02:41:32.563Z,8.85
2023-05-12T02:43:59.714Z,8.85
2023-05-12T02:46:26.906Z,9.07
2023-05-12T02:48:54.043Z,8.40
2023-05-12T02:51:21.170Z,9.20
2023-05-12T02:53:48.363Z,8.70
2023-05-12T02:56:16.261Z,9.02
2023-05-12T02:58:43.476Z,9.20
2023-05-12T03:01:11.845Z,8.52
2023-05-12T03:03:39.498Z,8.68
2023-05-12T03:06:07.414Z,7.82
2023-05-12T03:08:34.558Z,7.82
2023-05-12T03:11:01.996Z,7.43
2023-05-12T03:13:29.134Z,7.38
2023-05-12T03:15:57.148Z,7.40
2023-05-12T03:18:24.361Z,18.80
2023-05-12T03:20:51.794Z,10.15
2023-05-12T03:23:18.979Z,7.53
2023-05-12T03:25:46.193Z,7.28
2023-05-12T03:28:13.322Z,7.13
2023-05-12T03:30:40.518Z,6.03
2023-05-12T03:33:07.614Z,6.10
2023-05-12T03:35:34.784Z,6.82
2023-05-12T03:38:01.946Z,7.47
2023-05-12T03:40:29.175Z,6.95
2023-05-12T03:42:56.304Z,7.10
2023-05-12T03:45:23.671Z,7.47
2023-05-12T03:47:50.989Z,7.75
2023-05-12T03:50:18.399Z,7.53
2023-05-12T03:52:45.720Z,8.80
2023-05-12T03:55:13.603Z,8.60
2023-05-12T03:57:41.063Z,7.70
2023-05-12T04:00:08.505Z,9.00
2023-05-12T04:02:35.737Z,8.02
2023-05-12T04:05:03.014Z,8.48
2023-05-12T04:07:30.208Z,8.77
2023-05-12T04:09:57.465Z,9.18
2023-05-12T04:12:24.620Z,9.20
2023-05-12T04:14:52.186Z,9.05
2023-05-12T04:17:19.480Z,9.93
2023-05-12T04:19:46.881Z,10.70
2023-05-12T04:22:14.140Z,11.38
2023-05-12T04:24:41.352Z,11.98
2023-05-12T04:27:08.519Z,11.77
2023-05-12T04:29:36.295Z,13.93
2023-05-12T04:32:04.052Z,13.27
2023-05-12T04:34:31.343Z,12.35
2023-05-12T04:36:58.493Z,12.18
2023-05-12T04:39:25.729Z,13.13
2023-05-12T04:41:52.915Z,12.40
2023-05-12T04:44:20.242Z,12.48
2023-05-12T04:46:47.407Z,12.38
2023-05-12T04:49:14.622Z,12.25
2023-05-12T04:51:44.343Z,12.80
2023-05-12T04:54:11.917Z,13.45
2023-05-12T04:56:39.150Z,14.35
2023-05-12T04:59:06.564Z,14.10
2023-05-12T05:01:33.871Z,13.30
2023-05-12T05:04:01.176Z,13.75
2023-05-12T05:06:28.468Z,12.90
2023-05-12T05:08:56.019Z,13.63
2023-05-12T05:11:23.586Z,12.88
2023-05-12T05:13:50.823Z,13.80
2023-05-12T05:16:18.039Z,12.85
2023-05-12T05:18:48.302Z,14.48
2023-05-12T05:21:15.547Z,13.85
2023-05-12T05:23:42.846Z,13.15
2023-05-12T05:26:10.341Z,13.93
2023-05-12T05:28:39.984Z,14.00
2023-05-12T05:31:07.645Z,13.30
2023-05-12T05:33:34.848Z,13.65
2023-05-12T05:36:02.023Z,14.10
2023-05-12T05:38:29.293Z,12.27
2023-05-12T05:40:56.558Z,11.38
2023-05-12T05:43:23.849Z,11.48
2023-05-12T05:45:51.666Z,12.30
2023-05-12T05:48:19.040Z,11.88
2023-05-12T05:50:46.659Z,12.65
2023-05-12T05:53:13.876Z,12.95
2023-05-12T05:55:41.120Z,12.90
2023-05-12T05:58:08.646Z,13.35
2023-05-12T06:00:35.895Z,13.18
2023-05-12T06:03:03.339Z,12.63
2023-05-12T06:05:30.707Z,12.50
2023-05-12T06:07:57.832Z,12.15
2023-05-12T06:10:25.072Z,11.23
2023-05-12T06:12:52.250Z,10.68
2023-05-12T06:15:19.764Z,10.60
2023-05-12T06:17:47.983Z,10.98
2023-05-12T06:20:15.244Z,11.20
2023-05-12T06:22:42.538Z,9.30
2023-05-12T06:25:09.798Z,9.73
2023-05-12T06:27:37.063Z,9.35
2023-05-12T06:30:04.422Z,8.52
2023-05-12T06:32:31.858Z,8.65
2023-05-12T06:34:59.124Z,7.90
2023-05-12T06:37:26.260Z,8.40
2023-05-12T06:39:53.466Z,8.27
2023-05-12T06:42:20.719Z,7.28
2023-05-12T06:44:47.892Z,6.95
2023-05-12T06:47:15.057Z,6.75
2023-05-12T06:49:42.246Z,6.60
2023-05-12T06:52:09.347Z,6.65
2023-05-12T06:54:36.527Z,7.07
2023-05-12T06:57:03.729Z,7.55
2023-05-12T06:59:31.073Z,6.90
2023-05-12T07:01:58.380Z,5.70
2023-05-12T07:04:26.844Z,5.30
2023-05-12T07:06:54.205Z,5.72
2023-05-12T07:09:21.542Z,5.82
2023-05-12T07:11:48.862Z,5.85
2023-05-12T07:14:16.075Z,5.70
2023-05-12T07:16:43.228Z,5.82
2023-05-12T07:19:10.553Z,5.40
2023-05-12T07:21:38.041Z,4.95
2023-05-12T07:24:06.329Z,5.45
2023-05-12T07:26:33.746Z,5.40
2023-05-12T07:29:01.402Z,5.45
2023-05-12T07:31:29.009Z,5.82
2023-05-12T07:33:56.267Z,5.68
2023-05-12T07:36:23.430Z,5.90
2023-05-12T07:38:50.632Z,5.78
2023-05-12T07:41:18.139Z,5.47
2023-05-12T07:43:45.614Z,5.10
2023-05-12T07:46:13.021Z,5.18
2023-05-12T07:48:40.513Z,5.47
2023-05-12T07:51:08.285Z,5.32
2023-05-12T07:53:35.768Z,5.47
2023-05-12T07:56:03.267Z,5.00
2023-05-12T07:58:30.541Z,4.45
2023-05-12T08:01:00.099Z,4.57
2023-05-12T08:03:27.545Z,5.40
2023-05-12T08:05:54.840Z,5.15
2023-05-12T08:08:22.056Z,4.90
2023-05-12T08:10:49.224Z,4.68
2023-05-12T08:13:16.403Z,5.35
2023-05-12T08:15:43.575Z,5.72
2023-05-12T08:18:10.792Z,5.20
2023-05-12T08:20:38.068Z,4.82
2023-05-12T08:23:05.271Z,4.97
2023-05-12T08:25:34.810Z,4.85
2023-05-12T08:28:02.025Z,5.68
2023-05-12T08:30:29.291Z,5.78
2023-05-12T08:32:56.830Z,5.40
2023-05-12T08:35:28.030Z,5.50
2023-05-12T08:37:55.246Z,6.20
2023-05-12T08:40:23.531Z,6.10
2023-05-12T08:43:01.617Z,6.20
2023-05-12T08:45:29.313Z,5.95
2023-05-12T08:47:57.508Z,6.32
2023-05-12T08:50:25.496Z,6.45
2023-05-12T08:52:52.780Z,6.38
2023-05-12T08:55:20.302Z,6.35
2023-05-12T08:57:48.529Z,6.00
2023-05-12T09:00:16.851Z,5.13
2023-05-12T09:02:52.728Z,3.88
2023-05-12T09:05:21.843Z,3.15
2023-05-12T09:07:50.406Z,2.97
2023-05-12T09:10:33.438Z,3.28
2023-05-12T09:13:04.126Z,3.67
2023-05-12T09:15:34.917Z,4.50
2023-05-12T09:18:02.199Z,4.10
2023-05-12T09:20:31.730Z,5.00
2023-05-12T09:23:00.161Z,6.22
2023-05-12T09:25:27.371Z,6.70
2023-05-12T09:27:56.661Z,7.60
2023-05-12T09:30:37.988Z,6.07
2023-05-12T09:33:08.270Z,5.68
2023-05-12T09:35:53.654Z,5.32
2023-05-12T09:38:20.812Z,5.47
2023-05-12T09:40:47.977Z,6.00
2023-05-12T09:43:16.628Z,6.45
2023-05-12T09:45:44.390Z,5.78
2023-05-12T09:48:14.900Z,5.82
2023-05-12T09:50:47.754Z,6.60
2023-05-12T09:53:17.375Z,5.43
2023-05-12T09:55:45.003Z,3.97
2023-05-12T09:58:12.736Z,4.10
2023-05-12T10:01:06.029Z,4.45
2023-05-12T10:03:29.075Z,5.03
2023-05-12T10:06:01.589Z,5.15
2023-05-12T10:08:32.077Z,8.18
2023-05-12T10:11:00.528Z,7.78
2023-05-12T10:13:27.954Z,7.35
2023-05-12T10:15:57.270Z,8.35
2023-05-12T10:18:24.869Z,8.02
2023-05-12T10:20:52.784Z,6.30
2023-05-12T10:23:21.190Z,7.25
2023-05-12T10:25:48.349Z,5.88
2023-05-12T10:28:16.666Z,4.97
2023-05-12T10:30:44.291Z,5.82
2023-05-12T10:33:11.693Z,7.93
2023-05-12T10:35:40.164Z,8.32
2023-05-12T10:38:11.663Z,8.48
2023-05-12T10:40:50.254Z,9.20
2023-05-12T10:43:28.137Z,9.32
2023-05-12T10:46:13.744Z,9.30
2023-05-12T10:49:00.643Z,9.30
2023-05-12T10:51:29.098Z,9.15
2023-05-12T10:54:06.905Z,8.35
2023-05-12T10:56:40.520Z,8.43
2023-05-12T10:59:19.311Z,9.02
2023-05-12T11:02:04.547Z,8.10
2023-05-12T11:04:56.268Z,8.02
2023-05-12T11:07:27.067Z,8.90
2023-05-12T11:09:59.196Z,6.90
2023-05-12T11:12:30.285Z,7.43
2023-05-12T11:14:59.727Z,7.90
2023-05-12T11:17:27.002Z,8.15
2023-05-12T11:19:55.080Z,7.97
2023-05-12T11:22:22.972Z,9.05
2023-05-12T11:24:50.851Z,7.63
2023-05-12T11:27:18.878Z,6.93
2023-05-12T11:29:57.866Z,6.50
2023-05-12T11:32:25.270Z,7.50
2023-05-12T11:34:52.695Z,6.35
2023-05-12T11:37:21.139Z,5.22
2023-05-12T11:39:48.644Z,5.50
2023-05-12T11:42:17.794Z,5.22
2023-05-12T11:44:51.077Z,4.68
2023-05-12T11:47:19.989Z,4.50
2023-05-12T11:49:57.456Z,4.05
2023-05-12T11:52:25.137Z,4.43
2023-05-12T11:55:00.784Z,4.80
2023-05-12T11:57:32.548Z,7.30
2023-05-12T12:00:00.926Z,7.13
2023-05-12T12:02:28.495Z,7.40
2023-05-12T12:04:56.111Z,7.80
2023-05-12T12:07:33.768Z,8.27
2023-05-12T12:10:11.931Z,7.82
2023-05-12T12:12:39.411Z,8.18
2023-05-12T12:15:07.369Z,7.68
2023-05-12T12:17:34.681Z,7.15
2023-05-12T12:20:02.081Z,7.45
2023-05-12T12:22:34.263Z,7.38
2023-05-12T12:25:02.064Z,8.38
2023-05-12T12:27:29.235Z,7.55
2023-05-12T12:29:56.336Z,6.72
2023-05-12T12:32:23.660Z,6.60
2023-05-12T12:34:51.527Z,7.72
2023-05-12T12:37:18.717Z,6.82
2023-05-12T12:39:47.688Z,7.68
2023-05-12T12:42:15.753Z,8.57
2023-05-12T12:44:43.999Z,9.93
2023-05-12T12:47:11.207Z,9.00
2023-05-12T12:49:38.411Z,8.50
2023-05-12T12:52:05.811Z,8.20
2023-05-12T12:54:33.148Z,8.90
2023-05-12T12:57:00.270Z,10.00
2023-05-12T12:59:28.216Z,8.43
2023-05-12T13:01:55.781Z,8.40
2023-05-12T13:04:23.353Z,8.05
2023-05-12T13:06:50.545Z,7.72
2023-05-12T13:09:20.003Z,7.72
2023-05-12T13:11:47.631Z,8.10
2023-05-12T13:14:14.850Z,8.52
2023-05-12T13:16:42.050Z,7.40
2023-05-12T13:19:09.531Z,6.70
2023-05-12T13:21:36.762Z,6.53
2023-05-12T13:24:04.027Z,5.85
2023-05-12T13:26:31.111Z,5.30
2023-05-12T13:28:58.405Z,3.95
2023-05-12T13:31:25.980Z,4.18
2023-05-12T13:33:53.317Z,5.00
2023-05-12T13:36:20.473Z,4.70
2023-05-12T13:38:47.686Z,5.30
2023-05-12T13:41:14.868Z,5.63
2023-05-12T13:43:41.991Z,5.82
2023-05-12T13:46:09.656Z,5.50
2023-05-12T13:48:36.865Z,5.05
2023-05-12T13:51:04.249Z,5.10
2023-05-12T13:53:32.182Z,5.40
2023-05-12T13:55:59.512Z,4.57
2023-05-12T13:58:26.855Z,4.75
2023-05-12T14:00:54.038Z,4.28
2023-05-12T14:03:21.657Z,4.00
2023-05-12T14:05:48.822Z,3.75
2023-05-12T14:08:16.613Z,3.40
2023-05-12T14:10:44.561Z,3.50
2023-05-12T14:13:12.720Z,3.75
2023-05-12T14:15:48.746Z,3.88
2023-05-12T14:18:17.272Z,3.55
2023-05-12T14:20:44.371Z,4.00
2023-05-12T14:23:12.230Z,4.63
2023-05-12T14:25:39.713Z,4.38
2023-05-12T14:28:07.124Z,4.65
2023-05-12T14:30:37.479Z,4.45
2023-05-12T14:33:04.904Z,4.30
2023-05-12T14:35:32.110Z,4.82
2023-05-12T14:37:59.358Z,5.22
2023-05-12T14:40:27.359Z,5.32
2023-05-12T14:42:55.386Z,4.70
2023-05-12T14:45:23.122Z,4.60
2023-05-12T14:47:50.520Z,4.13
2023-05-12T14:50:18.956Z,4.88
2023-05-12T14:52:46.789Z,5.03
2023-05-12T14:55:15.033Z,5.20
2023-05-12T14:57:42.611Z,4.55
2023-05-12T15:00:11.191Z,4.93
2023-05-12T15:02:39.070Z,4.95
2023-05-12T15:05:07.169Z,4.78
2023-05-12T15:07:34.414Z,4.95
2023-05-12T15:10:01.617Z,4.80
2023-05-12T15:12:28.926Z,5.28
2023-05-12T15:14:56.398Z,5.40
2023-05-12T15:17:23.905Z,5.10
2023-05-12T15:19:51.153Z,5.53
2023-05-12T15:22:18.348Z,5.18
2023-05-12T15:24:45.591Z,4.40
2023-05-12T15:27:12.811Z,5.13
2023-05-12T15:29:40.679Z,5.63
2023-05-12T15:32:08.205Z,4.97
2023-05-12T15:34:35.958Z,5.32
2023-05-12T15:37:03.650Z,5.15
2023-05-12T15:39:30.791Z,5.38
2023-05-12T15:41:58.921Z,5.40
2023-05-12T15:44:26.024Z,5.43
2023-05-12T15:46:53.286Z,5.07
2023-05-12T15:49:20.647Z,4.72
2023-05-12T15:51:47.888Z,4.13
2023-05-12T15:54:15.099Z,4.60
2023-05-12T15:56:42.517Z,4.68
2023-05-12T15:59:11.388Z,4.43
2023-05-12T16:01:38.913Z,3.53
2023-05-12T16:04:06.953Z,4.63
2023-05-12T16:06:34.304Z,4.53
2023-05-12T16:09:01.627Z,4.35
2023-05-12T16:11:29.752Z,5.60
2023-05-12T16:13:59.964Z,5.10
2023-05-12T16:16:27.222Z,4.82
2023-05-12T16:18:54.458Z,5.15
2023-05-12T16:21:22.028Z,5.47
2023-05-12T16:23:49.176Z,4.85
2023-05-12T16:26:16.546Z,5.10
2023-05-12T16:28:44.339Z,5.00
2023-05-12T16:31:12.779Z,5.03
2023-05-12T16:33:39.947Z,6.30
2023-05-12T16:36:07.241Z,7.07
2023-05-12T16:38:34.768Z,7.57
2023-05-12T16:41:01.932Z,6.75
2023-05-12T16:43:29.049Z,4.70
2023-05-12T16:46:03.231Z,6.10
2023-05-12T16:48:34.322Z,6.13
2023-05-12T16:51:02.542Z,6.20
2023-05-12T16:53:29.994Z,5.82
2023-05-12T16:55:57.616Z,6.13
2023-05-12T16:58:25.233Z,6.35
2023-05-12T17:00:52.350Z,4.80
2023-05-12T17:03:19.645Z,5.45
2023-05-12T17:05:46.947Z,5.82
2023-05-12T17:08:14.223Z,4.55
2023-05-12T17:10:41.412Z,3.80
2023-05-12T17:13:08.750Z,3.40
2023-05-12T17:15:37.605Z,4.07
2023-05-12T17:18:05.526Z,2.78
2023-05-12T17:20:33.842Z,2.50
2023-05-12T17:23:01.371Z,2.85
2023-05-12T17:25:29.810Z,2.72
2023-05-12T17:27:56.982Z,2.28
2023-05-12T17:30:24.241Z,2.53
2023-05-12T17:32:51.747Z,1.95
2023-05-12T17:35:19.351Z,2.50
2023-05-12T17:37:46.859Z,2.85
2023-05-12T17:40:17.983Z,2.75
2023-05-12T17:42:45.569Z,2.97
2023-05-12T17:45:14.433Z,2.88
2023-05-12T17:47:41.981Z,2.60
2023-05-12T17:50:14.874Z,2.78
2023-05-12T17:52:43.016Z,2.78
2023-05-12T17:55:10.454Z,2.40
2023-05-12T17:57:38.083Z,2.35
2023-05-12T18:00:09.900Z,2.70
2023-05-12T18:02:38.103Z,2.40
2023-05-12T18:05:06.052Z,2.58
2023-05-12T18:07:33.259Z,2.05
2023-05-12T18:10:00.541Z,1.95
2023-05-12T18:12:27.735Z,2.33
2023-05-12T18:14:54.980Z,2.10
2023-05-12T18:17:22.576Z,2.35
2023-05-12T18:19:49.971Z,2.03
2023-05-12T18:22:18.373Z,2.30
2023-05-12T18:24:45.849Z,2.03
2023-05-12T18:27:13.158Z,2.10
2023-05-12T18:29:40.558Z,2.13
2023-05-12T18:32:07.725Z,2.40
2023-05-12T18:34:35.035Z,2.22
2023-05-12T18:37:02.586Z,2.63
2023-05-12T18:39:29.806Z,2.20
2023-05-12T18:41:57.702Z,2.65
2023-05-12T18:44:24.854Z,2.65
2023-05-12T18:46:52.123Z,2.72
2023-05-12T18:49:19.333Z,2.90
2023-05-12T18:51:46.493Z,3.28
2023-05-12T18:54:13.735Z,2.97
2023-05-12T18:56:41.189Z,3.45
2023-05-12T18:59:08.432Z,2.70
2023-05-12T19:01:35.845Z,3.95
2023-05-12T19:04:03.756Z,3.08
2023-05-12T19:06:31.238Z,2.88
2023-05-12T19:08:58.424Z,2.63
2023-05-12T19:11:25.671Z,3.20
2023-05-12T19:13:53.007Z,3.00
2023-05-12T19:16:20.306Z,3.17
2023-05-12T19:18:48.422Z,3.00
2023-05-12T19:21:15.798Z,3.20
2023-05-12T19:23:43.108Z,3.63
2023-05-12T19:26:11.013Z,3.40
2023-05-12T19:28:38.285Z,3.38
2023-05-12T19:31:05.628Z,3.50
2023-05-12T19:33:34.729Z,3.67
2023-05-12T19:36:02.240Z,3.50
2023-05-12T19:38:29.363Z,3.47
2023-05-12T19:40:56.528Z,3.13
2023-05-12T19:43:23.684Z,3.22
2023-05-12T19:45:50.937Z,3.65
2023-05-12T19:48:18.163Z,3.75
2023-05-12T19:50:46.852Z,3.20
2023-05-12T19:53:14.079Z,3.17
2023-05-12T19:55:41.226Z,3.05
2023-05-12T19:58:08.916Z,2.88
2023-05-12T20:00:39.306Z,2.80
2023-05-12T20:03:07.130Z,3.50
2023-05-12T20:05:37.789Z,3.42
2023-05-12T20:08:05.339Z,3.78
2023-05-12T20:10:32.555Z,3.47
2023-05-12T20:13:01.248Z,3.67
2023-05-12T20:15:28.438Z,3.47
2023-05-12T20:17:56.186Z,3.72
2023-05-12T20:20:23.536Z,3.38
2023-05-12T20:22:50.829Z,3.28
2023-05-12T20:25:17.997Z,4.00
2023-05-12T20:27:45.481Z,3.88
2023-05-12T20:30:12.865Z,4.25
2023-05-12T20:32:40.108Z,4.25
2023-05-12T20:35:07.520Z,4.78
2023-05-12T20:37:34.765Z,5.15
2023-05-12T20:40:02.128Z,4.85
2023-05-12T20:42:30.937Z,4.28
2023-05-12T20:44:59.134Z,4.57
2023-05-12T20:47:26.654Z,4.47
2023-05-12T20:49:57.342Z,5.13
2023-05-12T20:52:28.703Z,4.55
2023-05-12T20:54:59.168Z,5.30
2023-05-12T20:57:29.385Z,5.13
2023-05-12T20:59:57.135Z,4.75
2023-05-12T21:02:26.046Z,4.60
2023-05-12T21:04:53.965Z,3.85
2023-05-12T21:07:21.221Z,4.43
2023-05-12T21:09:48.456Z,4.55
2023-05-12T21:12:16.016Z,3.97
2023-05-12T21:14:44.212Z,3.97
2023-05-12T21:17:12.109Z,4.97
2023-05-12T21:19:40.048Z,4.60
2023-05-12T21:22:07.869Z,5.00
2023-05-12T21:24:37.214Z,4.07
2023-05-12T21:27:05.018Z,4.22
2023-05-12T21:29:33.399Z,3.85
2023-05-12T21:32:00.785Z,3.88
2023-05-12T21:34:28.055Z,4.60
2023-05-12T21:36:55.241Z,4.60
2023-05-12T21:39:22.797Z,4.75
2023-05-12T21:41:50.017Z,4.20
2023-05-12T21:44:17.131Z,4.57
2023-05-12T21:46:44.345Z,4.30
2023-05-12T21:49:11.600Z,4.10
2023-05-12T21:51:38.774Z,4.43
2023-05-12T21:54:06.041Z,5.03
2023-05-12T21:56:33.338Z,4.35
2023-05-12T21:59:00.627Z,4.75
2023-05-12T22:01:27.821Z,5.13
2023-05-12T22:03:55.071Z,4.18
2023-05-12T22:06:22.285Z,4.82
2023-05-12T22:08:49.540Z,4.90
2023-05-12T22:11:16.905Z,4.75
2023-05-12T22:13:44.132Z,5.30
2023-05-12T22:16:11.406Z,5.03
2023-05-12T22:18:38.785Z,6.25
2023-05-12T22:21:05.960Z,5.40
2023-05-12T22:23:33.104Z,5.20
2023-05-12T22:26:00.392Z,5.38
2023-05-12T22:28:27.543Z,5.20
2023-05-12T22:30:54.701Z,5.28
2023-05-12T22:33:21.918Z,4.53
2023-05-12T22:35:49.121Z,4.88
2023-05-12T22:38:16.296Z,4.50
2023-05-12T22:40:43.588Z,4.32
2023-05-12T22:43:12.689Z,4.60
2023-05-12T22:45:39.937Z,4.95
2023-05-12T22:48:07.177Z,4.45
2023-05-12T22:50:34.356Z,5.32
2023-05-12T22:53:01.656Z,4.53
2023-05-12T22:55:31.119Z,4.63
2023-05-12T22:57:59.861Z,4.38
2023-05-12T23:00:27.515Z,4.20
2023-05-12T23:02:54.993Z,4.50
2023-05-12T23:05:22.241Z,4.05
2023-05-12T23:07:49.666Z,4.57
2023-05-12T23:10:16.787Z,3.92
2023-05-12T23:12:43.912Z,4.70
2023-05-12T23:15:11.326Z,4.43
2023-05-12T23:17:38.506Z,4.78
2023-05-12T23:20:06.057Z,4.38
2023-05-12T23:22:33.233Z,4.68
2023-05-12T23:25:00.509Z,4.82
2023-05-12T23:27:27.665Z,5.10
2023-05-12T23:29:54.797Z,4.90
2023-05-12T23:32:22.498Z,4.88
2023-05-12T23:34:49.821Z,5.10
2023-05-12T23:37:17.056Z,4.75
2023-05-12T23:39:44.158Z,5.25
2023-05-12T23:42:11.375Z,4.80
2023-05-12T23:44:38.621Z,5.00
2023-05-12T23:47:06.361Z,5.25
2023-05-12T23:49:33.554Z,4.38
2023-05-12T23:52:00.785Z,4.70
2023-05-12T23:54:28.652Z,5.45
2023-05-12T23:56:55.933Z,4.80
2023-05-12T23:59:23.058Z,4.75
